Elmaton, TX (77440)

11:23 PM CDT on September 17, 2014 (GMT -0500)
Selkirk Island | Change Station
CLOSE
Current Station
Personal Weather Station
Location: Bay City, TX
Elevation: 43 ft
Nearby Weather Stations
Active Advisory: Areal Flood Watch

Elev 43 ft 28.77 °N, 95.99 °W | Updated 5 minutes ago

Clear
Clear
79.2 °F
Feels Like 83 °F
N
0.0
Wind Variable Wind from WSW

Today
High -- | Low -- °F
--% Chance of Precip.
Yesterday
High -- | Low -- °F
Precip. -- in
7:10 AM 7:26 PM
Waning Crescent, 30% visible
Pressure 29.90 in
Visibility 10.0 miles
Clouds Clear
Heat Index 83 °F
Dew Point 76 °F
Humidity 89%
Rainfall 0.05 in
Snow Depth Not available.
UV 0 out of 12
Pollen 8.60 out of 12
Air Quality Not available.
Flu Activity Not available.
METAR KPSX 180353Z AUTO 15008KT 10SM CLR 28/25 A2990 RMK AO2 SLP124 T02780250

More Conditions Fewer Conditions

Pressure 29.90 in
Visibility 10.0 miles
Clouds Clear
Heat Index 83 °F
Dew Point 76 °F
Humidity 89%
Rainfall 0.05 in
Snow Depth Not available.
UV 0 out of 12
Pollen 8.60 out of 12
Air Quality Not available.
Flu Activity Not available.
METAR KPSX 180353Z AUTO 15008KT 10SM CLR 28/25 A2990 RMK AO2 SLP124 T02780250

More Conditions Fewer Conditions

10-Day Weather Forecast

Almanac

Astronomy

Sep. 17, 2014 Rise Set
Actual Time 7:10 AM CDT 7:26 PM CDT
Civil Twilight 6:46 AM CDT 7:50 PM CDT
Nautical Twilight 6:19 AM CDT 8:18 PM CDT
Astronomical Twilight 5:51 AM CDT 8:46 PM CDT
Moon 1:31 AM CDT (9/17) 3:18 PM CDT (9/17)
Length of Visible Light 13h 03m
Length of Day
12h 16m
Tomorrow will be 1m 42s shorter.
Waning Crescent, 30% of the Moon is Illuminated
Sep 18
Waning Crescent
Sep 24
New
Oct 1
First Quarter
Oct 8
Full
Oct 15
Last Quarter

Today's Extremes

State Highs State Lows

Community

WunderPhotos

Upload Photos

1,754,292 photos uploaded!

Nearby

Snow Depth

Station Depth Elevation
No new snow has been reported.

Earthquake Activity

City Distance Mag. Time & Date
No recent earthquake activity has been reported nearby.
Minimum magnitude displayed is 2.5.

Coastal Water Temperatures

Place Temperature
Seadrift, TX 84.9 °F
Rockport, TX 86.0 °F
USCG Freeport, TX 84.0 °F

Nearby Weather Stations